メインページ
METAR-TAF:

METAR-TAF

空港 :

コルドバ, アルゼンチン

緯度: 31-19S, 経度: 064-13W, 海抜: 484m

現時点の気象観測

当レポートは19分前の02:00(UTC)に作成
の風 7kt
気温 15°C
湿度 59%
気圧 1019 hPa
視程10km以上
1,500メートル以下は雲なし、積乱雲なし

METAR: SACO 010200Z 36007KT CAVOK 15/07 Q1019

時間: 23:19 (02:19 UTC)

予報

当レポートは3時間19分前の23:00(UTC)に作成
予報は01日の 00時(UTC)から 01日の 24時(UTC)まで有効
北/北東の風 10kt
視程10km以上
1,500メートル以下は雲なし、積乱雲なし
間 01から12 UTC徐々に
の風 10kt
視程10km以上

TAF: SACO 302300Z 0100/0124 02010KT CAVOK TX27/0118Z TN06/0110Z BECMG 0112 36010KT 9999 S0

4,000以上の空港の気象観測と天気予報(METAR報とTAF報)

利用可能な観測所は地図上に黄色い丸と赤い丸で示す。

丸の上にカーソルを重ねると観測所名を参照できる。

次にクリックすると気象観測と天気予報を参照できる。

マップの切り替え:黒色「×」印の緑ボタンをクリックして拡大、「-」印の緑ボタンをクリックして縮小、緑色の三角印をクリックして隣りの地図に切り替え


METAR-TAF: